createdAt,value
2023-02-11T00:00:45.541Z,0.00
2023-02-11T00:01:45.556Z,0.00
2023-02-11T00:02:47.816Z,0.00
2023-02-11T00:03:46.582Z,0.00
2023-02-11T00:04:45.469Z,0.00
2023-02-11T00:05:45.450Z,0.00
2023-02-11T00:06:45.460Z,0.00
2023-02-11T00:07:45.415Z,0.00
2023-02-11T00:08:45.400Z,0.00
2023-02-11T00:09:45.381Z,0.00
2023-02-11T00:10:45.359Z,0.00
2023-02-11T00:11:45.372Z,0.00
2023-02-11T00:12:45.326Z,0.00
2023-02-11T00:13:45.310Z,0.00
2023-02-11T00:14:45.288Z,0.00
2023-02-11T00:15:45.280Z,0.00
2023-02-11T00:16:45.334Z,0.00
2023-02-11T00:17:45.242Z,0.00
2023-02-11T00:18:45.218Z,0.00
2023-02-11T00:19:45.199Z,0.00
2023-02-11T00:20:45.183Z,0.00
2023-02-11T00:21:45.197Z,0.00
2023-02-11T00:22:45.149Z,0.00
2023-02-11T00:23:45.133Z,0.00
2023-02-11T00:24:45.117Z,0.00
2023-02-11T00:25:45.101Z,0.00
2023-02-11T00:26:45.108Z,0.00
2023-02-11T00:27:45.060Z,0.00
2023-02-11T00:28:45.043Z,0.00
2023-02-11T00:29:45.019Z,0.00
2023-02-11T00:30:45.128Z,0.00
2023-02-11T00:31:45.257Z,0.00
2023-02-11T00:32:44.969Z,0.00
2023-02-11T00:33:44.946Z,0.00
2023-02-11T00:34:44.929Z,0.00
2023-02-11T00:35:44.908Z,0.00
2023-02-11T00:36:44.918Z,0.00
2023-02-11T00:37:44.871Z,0.00
2023-02-11T00:38:44.858Z,0.00
2023-02-11T00:39:44.837Z,0.00
2023-02-11T00:40:44.817Z,0.00
2023-02-11T00:41:44.844Z,0.00
2023-02-11T00:42:44.784Z,0.00
2023-02-11T00:43:44.763Z,0.00
2023-02-11T00:44:44.746Z,0.00
2023-02-11T00:45:44.848Z,0.00
2023-02-11T00:46:44.853Z,0.00
2023-02-11T00:47:44.690Z,0.00
2023-02-11T00:48:44.696Z,0.00
2023-02-11T00:49:44.654Z,0.00
2023-02-11T00:50:44.634Z,0.00
2023-02-11T00:51:44.645Z,0.00
2023-02-11T00:52:44.593Z,0.00
2023-02-11T00:53:44.580Z,0.00
2023-02-11T00:54:44.560Z,0.00
2023-02-11T00:55:44.540Z,0.00
2023-02-11T00:56:44.551Z,0.00
2023-02-11T00:57:44.505Z,0.00
2023-02-11T00:58:44.483Z,0.00
2023-02-11T00:59:44.471Z,0.00
2023-02-11T01:00:44.449Z,0.00
2023-02-11T01:01:44.570Z,0.00
2023-02-11T01:02:44.430Z,0.00
2023-02-11T01:03:44.400Z,0.00
2023-02-11T01:04:44.377Z,0.00
2023-02-11T01:05:44.363Z,0.00
2023-02-11T01:06:44.377Z,0.00
2023-02-11T01:07:44.331Z,0.00
2023-02-11T01:08:44.311Z,0.00
2023-02-11T01:09:44.293Z,0.00
2023-02-11T01:10:44.278Z,0.00
2023-02-11T01:11:44.286Z,0.00
2023-02-11T01:12:44.243Z,0.00
2023-02-11T01:13:44.220Z,0.00
2023-02-11T01:14:44.204Z,0.00
2023-02-11T01:15:44.222Z,0.00
2023-02-11T01:16:44.195Z,0.00
2023-02-11T01:17:44.151Z,0.00
2023-02-11T01:18:44.157Z,0.00
2023-02-11T01:19:44.163Z,0.00
2023-02-11T01:20:44.099Z,0.00
2023-02-11T01:21:44.107Z,0.00
2023-02-11T01:22:44.053Z,0.00
2023-02-11T01:23:45.054Z,0.00
2023-02-11T01:24:44.026Z,0.00
2023-02-11T01:25:44.019Z,0.00
2023-02-11T01:26:44.021Z,0.00
2023-02-11T01:27:43.969Z,0.00
2023-02-11T01:28:43.952Z,0.00
2023-02-11T01:29:43.942Z,0.00
2023-02-11T01:30:43.975Z,0.00
2023-02-11T01:31:43.946Z,0.00
2023-02-11T01:32:43.883Z,0.00
2023-02-11T01:33:43.862Z,0.00
2023-02-11T01:34:43.848Z,0.00
2023-02-11T01:35:43.828Z,0.00
2023-02-11T01:36:43.843Z,0.00
2023-02-11T01:37:43.793Z,0.00
2023-02-11T01:38:43.773Z,0.00
2023-02-11T01:39:43.766Z,0.00
2023-02-11T01:40:43.739Z,0.00
2023-02-11T01:41:43.751Z,0.00
2023-02-11T01:42:43.698Z,0.00
2023-02-11T01:43:43.686Z,0.00
2023-02-11T01:44:43.664Z,0.00
2023-02-11T01:45:43.646Z,0.00
2023-02-11T01:46:43.696Z,0.00
2023-02-11T01:47:43.618Z,0.00
2023-02-11T01:48:43.592Z,0.00
2023-02-11T01:49:43.566Z,0.00
2023-02-11T01:50:44.557Z,0.00
2023-02-11T01:51:43.573Z,0.00
2023-02-11T01:52:43.526Z,0.00
2023-02-11T01:53:43.510Z,0.00
2023-02-11T01:54:43.485Z,0.00
2023-02-11T01:55:43.473Z,0.00
2023-02-11T01:56:43.481Z,0.00
2023-02-11T01:57:43.426Z,0.00
2023-02-11T01:58:43.413Z,0.00
2023-02-11T01:59:43.420Z,0.00
2023-02-11T02:00:43.376Z,0.00
2023-02-11T02:01:43.463Z,0.00
2023-02-11T02:02:43.337Z,0.00
2023-02-11T02:03:43.361Z,0.00
2023-02-11T02:04:43.325Z,0.00
2023-02-11T02:05:43.276Z,0.00
2023-02-11T02:06:44.291Z,0.00
2023-02-11T02:07:43.244Z,0.00
2023-02-11T02:08:43.229Z,0.00
2023-02-11T02:09:43.205Z,0.00
2023-02-11T02:10:43.186Z,0.00
2023-02-11T02:11:43.211Z,0.00
2023-02-11T02:12:43.153Z,0.00
2023-02-11T02:13:43.149Z,0.00
2023-02-11T02:14:43.147Z,0.00
2023-02-11T02:15:43.118Z,0.00
2023-02-11T02:16:43.160Z,0.00
2023-02-11T02:17:43.091Z,0.00
2023-02-11T02:18:43.037Z,0.00
2023-02-11T02:19:43.020Z,0.00
2023-02-11T02:20:43.002Z,0.00
2023-02-11T02:21:42.990Z,0.00
2023-02-11T02:22:43.005Z,0.00
2023-02-11T02:23:42.948Z,0.00
2023-02-11T02:24:42.930Z,0.00
2023-02-11T02:25:42.943Z,0.00
2023-02-11T02:26:42.893Z,0.00
2023-02-11T02:27:42.908Z,0.00
2023-02-11T02:28:42.858Z,0.00
2023-02-11T02:29:42.837Z,0.00
2023-02-11T02:30:42.846Z,0.00
2023-02-11T02:31:42.838Z,0.00
2023-02-11T02:32:42.810Z,0.00
2023-02-11T02:33:42.772Z,0.00
2023-02-11T02:34:42.745Z,0.00
2023-02-11T02:35:42.726Z,0.00
2023-02-11T02:36:42.713Z,0.00
2023-02-11T02:37:42.723Z,0.00
2023-02-11T02:38:42.672Z,0.00
2023-02-11T02:39:42.653Z,0.00
2023-02-11T02:40:42.629Z,0.00
2023-02-11T02:41:42.612Z,0.00
2023-02-11T02:42:42.625Z,0.00
2023-02-11T02:43:42.578Z,0.00
2023-02-11T02:44:42.563Z,0.00
2023-02-11T02:45:42.571Z,0.00
2023-02-11T02:46:42.584Z,0.00
2023-02-11T02:47:42.506Z,0.00
2023-02-11T02:48:42.486Z,0.00
2023-02-11T02:49:42.469Z,0.00
2023-02-11T02:50:42.493Z,0.00
2023-02-11T02:51:42.435Z,0.00
2023-02-11T02:52:42.427Z,0.00
2023-02-11T02:53:42.398Z,0.00
2023-02-11T02:54:42.373Z,0.00
2023-02-11T02:55:42.387Z,0.00
2023-02-11T02:56:42.347Z,0.00
2023-02-11T02:57:42.349Z,0.00
2023-02-11T02:58:42.304Z,0.00
2023-02-11T02:59:42.293Z,0.00
2023-02-11T03:00:42.343Z,0.00
2023-02-11T03:01:42.251Z,0.00
2023-02-11T03:02:42.274Z,0.00
2023-02-11T03:03:42.242Z,0.00
2023-02-11T03:04:42.207Z,0.00
2023-02-11T03:05:42.178Z,0.00
2023-02-11T03:06:42.159Z,0.00
2023-02-11T03:07:42.175Z,0.00
2023-02-11T03:08:42.129Z,0.00
2023-02-11T03:09:42.108Z,0.00
2023-02-11T03:10:42.089Z,0.00
2023-02-11T03:11:42.114Z,0.00
2023-02-11T03:12:42.046Z,0.00
2023-02-11T03:13:42.036Z,0.00
2023-02-11T03:14:42.009Z,0.00
2023-02-11T03:15:43.000Z,0.00
2023-02-11T03:16:42.047Z,0.00
2023-02-11T03:17:41.988Z,0.00
2023-02-11T03:18:41.937Z,0.00
2023-02-11T03:19:42.926Z,0.00
2023-02-11T03:20:41.914Z,0.00
2023-02-11T03:21:41.893Z,0.00
2023-02-11T03:22:41.953Z,0.00
2023-02-11T03:23:41.863Z,0.00
2023-02-11T03:24:41.835Z,0.00
2023-02-11T03:25:41.811Z,0.00
2023-02-11T03:26:41.799Z,0.00
2023-02-11T03:27:41.814Z,0.00
2023-02-11T03:28:41.760Z,0.00
2023-02-11T03:29:41.741Z,0.00
2023-02-11T03:30:41.751Z,0.00
2023-02-11T03:31:41.789Z,0.00
2023-02-11T03:32:41.711Z,0.00
2023-02-11T03:33:41.667Z,0.00
2023-02-11T03:34:41.656Z,0.00
2023-02-11T03:35:41.629Z,0.00
2023-02-11T03:36:41.610Z,0.00
2023-02-11T03:37:41.625Z,0.00
2023-02-11T03:38:41.575Z,0.00
2023-02-11T03:39:41.568Z,0.00
2023-02-11T03:40:41.538Z,0.00
2023-02-11T03:41:41.515Z,0.00
2023-02-11T03:42:42.542Z,0.00
2023-02-11T03:43:41.488Z,0.00
2023-02-11T03:44:41.465Z,0.00
2023-02-11T03:45:41.504Z,0.00
2023-02-11T03:46:41.432Z,0.00
2023-02-11T03:47:41.443Z,0.00
2023-02-11T03:48:41.392Z,0.00
2023-02-11T03:49:41.375Z,0.00
2023-02-11T03:50:41.356Z,0.00
2023-02-11T03:51:41.334Z,0.00
2023-02-11T03:52:41.343Z,0.00
2023-02-11T03:53:41.296Z,0.00
2023-02-11T03:54:41.278Z,0.00
2023-02-11T03:55:41.260Z,0.00
2023-02-11T03:56:41.241Z,0.00
2023-02-11T03:57:41.250Z,0.00
2023-02-11T03:58:41.295Z,0.00
2023-02-11T03:59:41.182Z,0.00
2023-02-11T04:00:41.204Z,0.00
2023-02-11T04:01:41.147Z,0.00
2023-02-11T04:02:41.161Z,0.00
2023-02-11T04:03:41.112Z,0.00
2023-02-11T04:04:41.092Z,0.00
2023-02-11T04:05:41.075Z,0.00
2023-02-11T04:06:41.059Z,0.00
2023-02-11T04:07:41.070Z,0.00
2023-02-11T04:08:41.018Z,0.00
2023-02-11T04:09:41.000Z,0.00
2023-02-11T04:10:40.987Z,0.00
2023-02-11T04:11:40.966Z,0.00
2023-02-11T04:12:40.980Z,0.00
2023-02-11T04:13:40.930Z,0.00
2023-02-11T04:14:40.912Z,0.00
2023-02-11T04:15:40.893Z,0.00
2023-02-11T04:16:40.943Z,0.00
2023-02-11T04:17:40.886Z,0.00
2023-02-11T04:18:40.849Z,0.00
2023-02-11T04:19:40.831Z,0.00
2023-02-11T04:20:40.797Z,0.00
2023-02-11T04:21:40.778Z,0.00
2023-02-11T04:22:40.802Z,0.00
2023-02-11T04:23:40.741Z,0.00
2023-02-11T04:24:40.724Z,0.00
2023-02-11T04:25:40.705Z,0.00
2023-02-11T04:26:40.691Z,0.00
2023-02-11T04:27:40.701Z,0.00
2023-02-11T04:28:40.646Z,0.00
2023-02-11T04:29:40.635Z,0.00
2023-02-11T04:30:40.653Z,0.00
2023-02-11T04:31:40.637Z,0.00
2023-02-11T04:32:40.608Z,0.00
2023-02-11T04:33:40.556Z,0.00
2023-02-11T04:34:40.545Z,0.00
2023-02-11T04:35:40.514Z,0.00
2023-02-11T04:36:40.499Z,0.00
2023-02-11T04:37:40.514Z,0.00
2023-02-11T04:38:40.461Z,0.00
2023-02-11T04:39:40.442Z,0.00
2023-02-11T04:40:40.424Z,0.00
2023-02-11T04:41:40.405Z,0.00
2023-02-11T04:42:40.423Z,0.00
2023-02-11T04:43:40.364Z,0.00
2023-02-11T04:44:40.346Z,0.00
2023-02-11T04:45:40.393Z,0.00
2023-02-11T04:46:40.311Z,0.00
2023-02-11T04:47:40.322Z,0.00
2023-02-11T04:48:40.269Z,0.00
2023-02-11T04:49:40.255Z,0.00
2023-02-11T04:50:40.240Z,0.00
2023-02-11T04:51:40.214Z,0.00
2023-02-11T04:52:40.227Z,0.00
2023-02-11T04:53:40.185Z,0.00
2023-02-11T04:54:40.160Z,0.00
2023-02-11T04:55:40.145Z,0.00
2023-02-11T04:56:40.121Z,0.00
2023-02-11T04:57:40.134Z,0.00
2023-02-11T04:58:40.086Z,0.00
2023-02-11T04:59:40.066Z,0.00
2023-02-11T05:00:40.046Z,0.00
2023-02-11T05:01:40.111Z,0.00
2023-02-11T05:02:40.044Z,0.00
2023-02-11T05:03:39.992Z,0.00
2023-02-11T05:04:39.975Z,0.00
2023-02-11T05:05:39.955Z,0.00
2023-02-11T05:06:39.938Z,0.00
2023-02-11T05:07:39.953Z,0.00
2023-02-11T05:08:39.895Z,0.00
2023-02-11T05:09:39.883Z,0.00
2023-02-11T05:10:39.860Z,0.00
2023-02-11T05:11:39.848Z,0.00
2023-02-11T05:12:39.859Z,0.00
2023-02-11T05:13:39.804Z,0.00
2023-02-11T05:14:39.788Z,0.00
2023-02-11T05:15:39.769Z,0.00
2023-02-11T05:16:39.821Z,0.00
2023-02-11T05:17:39.762Z,0.00
2023-02-11T05:18:39.713Z,0.00
2023-02-11T05:19:39.704Z,0.00
2023-02-11T05:20:39.674Z,0.00
2023-02-11T05:21:42.343Z,0.00
2023-02-11T05:22:40.665Z,0.00
2023-02-11T05:23:39.623Z,0.00
2023-02-11T05:24:39.611Z,0.00
2023-02-11T05:25:39.579Z,0.00
2023-02-11T05:26:39.567Z,0.00
2023-02-11T05:27:39.573Z,0.00
2023-02-11T05:28:39.532Z,0.00
2023-02-11T05:29:39.505Z,0.00
2023-02-11T05:30:39.530Z,0.00
2023-02-11T05:31:39.486Z,0.00
2023-02-11T05:32:39.490Z,0.00
2023-02-11T05:33:39.433Z,0.00
2023-02-11T05:34:39.416Z,0.00
2023-02-11T05:35:39.396Z,0.00
2023-02-11T05:36:39.379Z,0.00
2023-02-11T05:37:39.423Z,0.00
2023-02-11T05:38:39.338Z,0.00
2023-02-11T05:39:39.319Z,0.00
2023-02-11T05:40:39.298Z,0.00
2023-02-11T05:41:39.281Z,0.00
2023-02-11T05:42:39.292Z,0.00
2023-02-11T05:43:39.278Z,0.00
2023-02-11T05:44:39.230Z,0.00
2023-02-11T05:45:39.204Z,0.00
2023-02-11T05:46:39.207Z,0.00
2023-02-11T05:47:39.169Z,0.00
2023-02-11T05:48:39.186Z,0.00
2023-02-11T05:49:39.134Z,0.00
2023-02-11T05:50:39.122Z,0.00
2023-02-11T05:51:39.098Z,0.00
2023-02-11T05:52:39.136Z,0.00
2023-02-11T05:53:39.084Z,0.00
2023-02-11T05:54:39.038Z,0.00
2023-02-11T05:55:39.021Z,0.00
2023-02-11T05:56:38.999Z,0.00
2023-02-11T05:57:38.980Z,0.00
2023-02-11T05:58:38.981Z,0.00
2023-02-11T05:59:39.953Z,0.00
2023-02-11T06:00:38.928Z,0.00
2023-02-11T06:01:38.911Z,0.00
2023-02-11T06:02:38.935Z,0.00
2023-02-11T06:03:38.968Z,0.00
2023-02-11T06:04:38.848Z,0.00
2023-02-11T06:05:38.832Z,0.00
2023-02-11T06:06:38.812Z,0.00
2023-02-11T06:07:38.793Z,0.00
2023-02-11T06:08:39.451Z,0.00
2023-02-11T06:09:39.752Z,0.00
2023-02-11T06:10:38.734Z,0.00
2023-02-11T06:11:38.714Z,0.00
2023-02-11T06:12:38.694Z,0.00
2023-02-11T06:13:38.704Z,0.00
2023-02-11T06:14:38.660Z,0.00
2023-02-11T06:15:38.667Z,0.00
2023-02-11T06:16:38.629Z,0.00
2023-02-11T06:17:38.607Z,0.00
2023-02-11T06:18:38.614Z,0.00
2023-02-11T06:19:38.566Z,0.00
2023-02-11T06:20:38.549Z,0.00
2023-02-11T06:21:44.225Z,4.00
2023-02-11T06:22:40.513Z,4.00
2023-02-11T06:23:38.527Z,0.00
2023-02-11T06:24:59.918Z,4.00
2023-02-11T06:25:40.462Z,4.00
2023-02-11T06:26:38.444Z,4.00
2023-02-11T06:27:38.437Z,4.00
2023-02-11T06:28:41.674Z,4.00
2023-02-11T06:29:39.385Z,4.00
2023-02-11T06:30:38.366Z,4.00
2023-02-11T06:31:38.527Z,8.00
2023-02-11T06:32:46.155Z,8.00
2023-02-11T06:33:40.349Z,12.00
2023-02-11T06:34:38.291Z,12.00
2023-02-11T06:35:38.277Z,12.00
2023-02-11T06:36:38.260Z,16.00
2023-02-11T06:37:38.244Z,16.00
2023-02-11T06:38:38.249Z,20.00
2023-02-11T06:39:38.202Z,24.00
2023-02-11T06:40:38.295Z,24.00
2023-02-11T06:41:38.174Z,28.00
2023-02-11T06:42:38.148Z,32.00
2023-02-11T06:43:38.163Z,32.00
2023-02-11T06:44:38.113Z,40.00
2023-02-11T06:45:38.085Z,40.00
2023-02-11T06:46:38.159Z,48.00
2023-02-11T06:47:38.064Z,48.00
2023-02-11T06:48:38.068Z,52.00
2023-02-11T06:49:38.018Z,60.00
2023-02-11T06:50:38.000Z,64.00
2023-02-11T06:51:37.969Z,68.00
2023-02-11T06:52:38.965Z,76.00
2023-02-11T06:53:37.972Z,88.00
2023-02-11T06:54:37.921Z,92.00
2023-02-11T06:55:37.905Z,96.00
2023-02-11T06:56:37.880Z,104.00
2023-02-11T06:57:37.866Z,112.00
2023-02-11T06:58:37.874Z,120.00
2023-02-11T06:59:37.826Z,128.00
2023-02-11T07:00:37.812Z,144.00
2023-02-11T07:01:37.851Z,160.00
2023-02-11T07:02:37.818Z,172.00
2023-02-11T07:03:37.781Z,184.00
2023-02-11T07:04:37.729Z,192.00
2023-02-11T07:05:37.714Z,208.00
2023-02-11T07:06:37.699Z,232.00
2023-02-11T07:07:37.697Z,252.00
2023-02-11T07:08:37.691Z,268.00
2023-02-11T07:09:37.676Z,296.00
2023-02-11T07:10:37.619Z,324.00
2023-02-11T07:11:37.602Z,332.00
2023-02-11T07:12:37.587Z,348.00
2023-02-11T07:13:37.564Z,352.00
2023-02-11T07:14:37.581Z,336.00
2023-02-11T07:15:37.536Z,348.00
2023-02-11T07:16:37.575Z,384.00
2023-02-11T07:17:37.501Z,456.00
2023-02-11T07:18:37.468Z,508.00
2023-02-11T07:19:38.486Z,600.00
2023-02-11T07:20:37.439Z,664.00
2023-02-11T07:21:37.424Z,644.00
2023-02-11T07:22:37.404Z,628.00
2023-02-11T07:23:37.410Z,664.00
2023-02-11T07:24:37.362Z,620.00
2023-02-11T07:25:37.347Z,616.00
2023-02-11T07:26:37.321Z,532.00
2023-02-11T07:27:37.302Z,564.00
2023-02-11T07:28:37.390Z,568.00
2023-02-11T07:29:37.263Z,588.00
2023-02-11T07:30:37.242Z,616.00
2023-02-11T07:31:37.316Z,524.00
2023-02-11T07:32:37.205Z,624.00
2023-02-11T07:33:37.238Z,528.00
2023-02-11T07:34:37.189Z,528.00
2023-02-11T07:35:37.154Z,620.00
2023-02-11T07:36:37.135Z,628.00
2023-02-11T07:37:37.116Z,640.00
2023-02-11T07:38:37.124Z,588.00
2023-02-11T07:39:37.076Z,664.00
2023-02-11T07:40:37.059Z,668.00
2023-02-11T07:41:38.093Z,624.00
2023-02-11T07:42:38.023Z,556.00
2023-02-11T07:43:37.041Z,496.00
2023-02-11T07:44:36.989Z,512.00
2023-02-11T07:45:36.965Z,588.00
2023-02-11T07:46:37.024Z,664.00
2023-02-11T07:47:36.929Z,616.00
2023-02-11T07:48:36.942Z,636.00
2023-02-11T07:49:36.904Z,612.00
2023-02-11T07:50:36.877Z,588.00
2023-02-11T07:51:36.856Z,616.00
2023-02-11T07:52:36.837Z,712.00
2023-02-11T07:53:36.850Z,772.00
2023-02-11T07:54:36.824Z,856.00
2023-02-11T07:55:36.778Z,1008.00
2023-02-11T07:56:36.761Z,936.00
2023-02-11T07:57:36.742Z,1132.00
2023-02-11T07:58:36.764Z,1072.00
2023-02-11T07:59:36.710Z,984.00
2023-02-11T08:00:36.717Z,1060.00
2023-02-11T08:01:36.673Z,980.00
2023-02-11T08:02:36.673Z,1060.00
2023-02-11T08:03:36.681Z,1032.00
2023-02-11T08:04:36.617Z,940.00
2023-02-11T08:05:36.593Z,816.00
2023-02-11T08:06:36.599Z,776.00
2023-02-11T08:07:36.558Z,736.00
2023-02-11T08:08:36.567Z,764.00
2023-02-11T08:09:36.534Z,868.00
2023-02-11T08:10:36.509Z,1020.00
2023-02-11T08:11:36.481Z,1156.00
2023-02-11T08:12:36.466Z,1212.00
2023-02-11T08:13:36.482Z,1136.00
2023-02-11T08:14:36.434Z,1132.00
2023-02-11T08:15:36.420Z,1024.00
2023-02-11T08:16:36.446Z,1060.00
2023-02-11T08:17:36.378Z,1052.00
2023-02-11T08:18:36.405Z,1104.00
2023-02-11T08:19:36.338Z,1288.00
2023-02-11T08:20:36.316Z,1332.00
2023-02-11T08:21:36.301Z,1380.00
2023-02-11T08:22:36.294Z,1320.00
2023-02-11T08:23:36.283Z,1096.00
2023-02-11T08:24:36.233Z,1284.00
2023-02-11T08:25:36.219Z,1184.00
2023-02-11T08:26:36.202Z,1316.00
2023-02-11T08:27:36.191Z,1420.00
2023-02-11T08:28:36.743Z,1324.00
2023-02-11T08:29:36.155Z,1240.00
2023-02-11T08:30:36.133Z,1208.00
2023-02-11T08:31:36.237Z,1200.00
2023-02-11T08:32:36.092Z,1108.00
2023-02-11T08:33:36.103Z,1120.00
2023-02-11T08:34:36.057Z,1072.00
2023-02-11T08:35:36.030Z,1128.00
2023-02-11T08:36:36.017Z,1140.00
2023-02-11T08:37:35.999Z,1192.00
2023-02-11T08:38:36.004Z,1124.00
2023-02-11T08:39:35.959Z,1184.00
2023-02-11T08:40:35.967Z,1292.00
2023-02-11T08:41:35.922Z,1304.00
2023-02-11T08:42:35.908Z,1444.00
2023-02-11T08:43:35.918Z,1656.00
2023-02-11T08:44:35.867Z,1724.00
2023-02-11T08:45:35.938Z,1640.00
2023-02-11T08:46:35.835Z,1744.00
2023-02-11T08:47:35.805Z,1916.00
2023-02-11T08:48:35.820Z,1812.00
2023-02-11T08:49:35.768Z,2088.00
2023-02-11T08:50:35.781Z,2388.00
2023-02-11T08:51:35.745Z,2204.00
2023-02-11T08:52:35.713Z,2404.00
2023-02-11T08:53:35.732Z,2512.00
2023-02-11T08:54:35.677Z,2704.00
2023-02-11T08:55:35.658Z,3116.00
2023-02-11T08:56:35.643Z,2532.00
2023-02-11T08:57:35.627Z,2656.00
2023-02-11T08:58:35.602Z,3020.00
2023-02-11T08:59:35.619Z,3012.00
2023-02-11T09:00:35.566Z,3016.00
2023-02-11T09:01:35.626Z,3296.00
2023-02-11T09:02:35.574Z,3300.00
2023-02-11T09:03:35.526Z,3328.00
2023-02-11T09:04:35.525Z,3172.00
2023-02-11T09:05:35.475Z,3320.00
2023-02-11T09:06:35.458Z,3888.00
2023-02-11T09:07:35.440Z,3344.00
2023-02-11T09:08:35.422Z,3496.00
2023-02-11T09:09:35.433Z,3976.00
2023-02-11T09:10:35.386Z,4740.00
2023-02-11T09:11:35.371Z,4556.00
2023-02-11T09:12:35.345Z,4312.00
2023-02-11T09:13:35.330Z,5080.00
2023-02-11T09:14:35.339Z,4908.00
2023-02-11T09:15:35.292Z,4740.00
2023-02-11T09:16:35.341Z,4368.00
2023-02-11T09:17:35.249Z,4128.00
2023-02-11T09:18:35.231Z,4488.00
2023-02-11T09:19:35.243Z,4724.00
2023-02-11T09:20:35.210Z,4536.00
2023-02-11T09:21:35.176Z,4288.00
2023-02-11T09:22:35.159Z,3944.00
2023-02-11T09:23:35.177Z,3588.00
2023-02-11T09:24:35.148Z,3684.00
2023-02-11T09:25:35.102Z,3600.00
2023-02-11T09:26:35.081Z,3976.00
2023-02-11T09:27:35.067Z,3876.00
2023-02-11T09:28:35.106Z,3692.00
2023-02-11T09:29:35.077Z,3592.00
2023-02-11T09:30:35.104Z,4168.00
2023-02-11T09:31:35.286Z,4232.00
2023-02-11T09:32:34.983Z,3972.00
2023-02-11T09:33:34.955Z,3940.00
2023-02-11T09:34:34.971Z,4252.00
2023-02-11T09:35:34.926Z,5160.00
2023-02-11T09:36:34.923Z,4724.00
2023-02-11T09:37:37.257Z,4484.00
2023-02-11T09:38:35.879Z,5288.00
2023-02-11T09:39:35.882Z,5840.00
2023-02-11T09:40:34.853Z,5992.00
2023-02-11T09:41:34.821Z,6948.00
2023-02-11T09:42:34.799Z,7328.00
2023-02-11T09:43:34.780Z,6968.00
2023-02-11T09:44:34.817Z,6876.00
2023-02-11T09:45:34.753Z,6608.00
2023-02-11T09:46:34.764Z,6028.00
2023-02-11T09:47:34.721Z,6084.00
2023-02-11T09:48:34.697Z,6492.00
2023-02-11T09:49:34.706Z,6776.00
2023-02-11T09:50:34.671Z,7080.00
2023-02-11T09:51:34.643Z,7556.00
2023-02-11T09:52:34.636Z,7572.00
2023-02-11T09:53:34.605Z,7408.00
2023-02-11T09:54:34.618Z,6964.00
2023-02-11T09:55:34.577Z,7468.00
2023-02-11T09:56:34.583Z,7708.00
2023-02-11T09:57:34.533Z,6732.00
2023-02-11T09:58:34.523Z,6988.00
2023-02-11T09:59:34.527Z,7276.00
2023-02-11T10:00:34.497Z,8604.00
2023-02-11T10:01:34.495Z,7724.00
2023-02-11T10:02:34.442Z,8100.00
2023-02-11T10:03:34.475Z,8844.00
2023-02-11T10:04:34.489Z,6896.00
2023-02-11T10:05:34.401Z,7012.00
2023-02-11T10:06:34.372Z,7464.00
2023-02-11T10:07:34.360Z,8468.00
2023-02-11T10:08:34.338Z,7728.00
2023-02-11T10:09:34.347Z,7720.00
2023-02-11T10:10:34.305Z,8100.00
2023-02-11T10:11:34.285Z,7828.00
2023-02-11T10:12:34.315Z,8356.00
2023-02-11T10:13:34.251Z,8572.00
2023-02-11T10:14:34.265Z,7612.00
2023-02-11T10:15:34.243Z,8496.00
2023-02-11T10:16:34.199Z,8764.00
2023-02-11T10:17:34.181Z,8676.00
2023-02-11T10:18:34.165Z,7728.00
2023-02-11T10:19:34.169Z,8036.00
2023-02-11T10:20:34.124Z,8444.00
2023-02-11T10:21:35.111Z,7880.00
2023-02-11T10:22:34.093Z,7280.00
2023-02-11T10:23:34.084Z,7216.00
2023-02-11T10:24:34.085Z,8128.00
2023-02-11T10:25:34.040Z,8240.00
2023-02-11T10:26:34.038Z,7816.00
2023-02-11T10:27:34.015Z,8076.00
2023-02-11T10:28:34.096Z,8180.00
2023-02-11T10:29:34.010Z,8008.00
2023-02-11T10:30:33.984Z,7416.00
2023-02-11T10:31:34.024Z,7148.00
2023-02-11T10:32:33.926Z,7036.00
2023-02-11T10:33:33.915Z,6660.00
2023-02-11T10:34:33.914Z,6424.00
2023-02-11T10:35:33.873Z,6352.00
2023-02-11T10:36:33.854Z,5664.00
2023-02-11T10:37:33.840Z,5296.00
2023-02-11T10:38:33.835Z,6288.00
2023-02-11T10:39:33.825Z,6440.00
2023-02-11T10:40:33.787Z,6208.00
2023-02-11T10:41:33.782Z,6224.00
2023-02-11T10:42:33.734Z,5796.00
2023-02-11T10:43:33.716Z,6208.00
2023-02-11T10:44:33.725Z,5408.00
2023-02-11T10:45:33.677Z,5060.00
2023-02-11T10:46:33.732Z,4928.00
2023-02-11T10:47:33.649Z,4776.00
2023-02-11T10:48:33.623Z,4844.00
2023-02-11T10:49:33.633Z,4864.00
2023-02-11T10:50:33.588Z,4368.00
2023-02-11T10:51:33.581Z,4152.00
2023-02-11T10:52:33.550Z,4240.00
2023-02-11T10:53:33.538Z,4464.00
2023-02-11T10:54:33.546Z,4148.00
2023-02-11T10:55:33.496Z,4152.00
2023-02-11T10:56:33.489Z,4244.00
2023-02-11T10:57:33.452Z,4940.00
2023-02-11T10:58:34.446Z,4692.00
2023-02-11T10:59:33.461Z,4492.00
2023-02-11T11:00:33.411Z,4192.00
2023-02-11T11:01:33.460Z,4488.00
2023-02-11T11:02:33.392Z,4444.00
2023-02-11T11:03:33.358Z,4180.00
2023-02-11T11:04:33.409Z,4052.00
2023-02-11T11:05:33.325Z,4100.00
2023-02-11T11:06:33.312Z,4056.00
2023-02-11T11:07:33.293Z,4292.00
2023-02-11T11:08:33.270Z,4516.00
2023-02-11T11:09:33.287Z,4368.00
2023-02-11T11:10:33.234Z,4428.00
2023-02-11T11:11:33.214Z,4376.00
2023-02-11T11:12:33.232Z,3976.00
2023-02-11T11:13:33.179Z,4380.00
2023-02-11T11:14:33.198Z,3800.00
2023-02-11T11:15:33.147Z,3656.00
2023-02-11T11:16:33.132Z,4112.00
2023-02-11T11:17:33.113Z,4180.00
2023-02-11T11:18:33.094Z,3752.00
2023-02-11T11:19:33.114Z,4012.00
2023-02-11T11:20:33.061Z,4264.00
2023-02-11T11:21:33.052Z,4232.00
2023-02-11T11:22:33.051Z,4564.00
2023-02-11T11:23:33.007Z,4808.00
2023-02-11T11:24:32.983Z,4504.00
2023-02-11T11:25:32.969Z,4640.00
2023-02-11T11:26:32.951Z,4288.00
2023-02-11T11:27:32.963Z,4324.00
2023-02-11T11:28:32.973Z,4600.00
2023-02-11T11:29:32.900Z,4904.00
2023-02-11T11:30:32.978Z,5024.00
2023-02-11T11:31:33.039Z,5052.00
2023-02-11T11:32:32.877Z,5036.00
2023-02-11T11:33:32.826Z,5120.00
2023-02-11T11:34:32.816Z,4976.00
2023-02-11T11:35:32.822Z,4912.00
2023-02-11T11:36:32.771Z,4756.00
2023-02-11T11:37:32.774Z,4700.00
2023-02-11T11:38:32.738Z,4528.00
2023-02-11T11:39:32.733Z,4240.00
2023-02-11T11:40:32.728Z,4480.00
2023-02-11T11:41:32.677Z,4532.00
2023-02-11T11:42:32.658Z,4548.00
2023-02-11T11:43:32.644Z,4312.00
2023-02-11T11:44:32.628Z,4384.00
2023-02-11T11:45:32.638Z,4316.00
2023-02-11T11:46:32.669Z,4160.00
2023-02-11T11:47:32.577Z,4116.00
2023-02-11T11:48:32.565Z,3980.00
2023-02-11T11:49:32.539Z,4004.00
2023-02-11T11:50:32.557Z,3844.00
2023-02-11T11:51:32.513Z,3880.00
2023-02-11T11:52:32.493Z,3640.00
2023-02-11T11:53:32.475Z,3336.00
2023-02-11T11:54:32.456Z,2960.00
2023-02-11T11:55:32.466Z,2956.00
2023-02-11T11:56:32.418Z,3160.00
2023-02-11T11:57:32.402Z,3140.00
2023-02-11T11:58:32.385Z,3416.00
2023-02-11T11:59:32.367Z,3192.00
2023-02-11T12:00:32.401Z,3164.00
2023-02-11T12:01:32.360Z,3300.00
2023-02-11T12:02:32.315Z,3276.00
2023-02-11T12:03:32.297Z,3028.00
2023-02-11T12:04:32.284Z,2860.00
2023-02-11T12:05:32.307Z,2696.00
2023-02-11T12:06:32.251Z,2936.00
2023-02-11T12:07:32.232Z,3128.00
2023-02-11T12:08:32.215Z,3092.00
2023-02-11T12:09:32.200Z,2844.00
2023-02-11T12:10:32.280Z,2576.00
2023-02-11T12:11:32.174Z,2684.00
2023-02-11T12:12:32.167Z,2540.00
2023-02-11T12:13:32.176Z,2480.00
2023-02-11T12:14:32.106Z,2348.00
2023-02-11T12:15:32.127Z,2364.00
2023-02-11T12:16:32.108Z,2316.00
2023-02-11T12:17:32.057Z,2364.00
2023-02-11T12:18:32.041Z,2488.00
2023-02-11T12:19:32.046Z,2620.00
2023-02-11T12:20:32.056Z,2816.00
2023-02-11T12:21:32.035Z,2412.00
2023-02-11T12:22:31.974Z,2524.00
2023-02-11T12:23:31.951Z,2732.00
2023-02-11T12:24:31.940Z,2664.00
2023-02-11T12:25:31.958Z,2544.00
2023-02-11T12:26:31.899Z,2568.00
2023-02-11T12:27:31.887Z,2632.00
2023-02-11T12:28:31.905Z,2680.00
2023-02-11T12:29:31.845Z,2588.00
2023-02-11T12:30:31.883Z,2408.00
2023-02-11T12:31:31.890Z,2360.00
2023-02-11T12:32:31.807Z,2384.00
2023-02-11T12:33:31.802Z,2488.00
2023-02-11T12:34:31.770Z,2444.00
2023-02-11T12:35:31.770Z,2316.00
2023-02-11T12:36:31.727Z,2532.00
2023-02-11T12:37:31.713Z,2708.00
2023-02-11T12:38:31.692Z,2676.00
2023-02-11T12:39:31.675Z,2508.00
2023-02-11T12:40:31.683Z,2360.00
2023-02-11T12:41:31.639Z,2376.00
2023-02-11T12:42:31.622Z,2500.00
2023-02-11T12:43:31.602Z,2404.00
2023-02-11T12:44:31.588Z,2308.00